Rounding results for class SRS C at rounding KSSS Korsöhalsen

Rank Sail no. Boat name Skipper/team Report no. Club Boat type Reported Sailed time Corr time To 1st boat
1 SWE 1 MITHRIL Team Mithril 98 Gustavsbergs BK One Off 2019-06-30 18:53:59 07:23:59 07:37:18 00:00:00
2 SWE 55 LA DOLCE VITA Per Lindstedt 229 KSSS Finngulf 33 2019-06-30 19:17:45 07:47:45 08:01:18 00:24:00
3 SWE 594 FALSAT Falsat 162 Örnsköldsviks SS Albin Express 2019-06-30 20:11:54 08:51:54 08:04:01 00:26:43
4 FIN 7850 VINCA Markku Hentinen 209 Espoon Pursiseura X-99 2019-06-30 19:27:56 07:57:56 08:04:08 00:26:50
5 SWE 16532 XPLORER Team Xplorer 128 KSSS X-332 2019-06-30 19:29:02 07:59:02 08:08:08 00:30:49
6 SWE 195 WET-X Wet-X Sailing Team 31 Enköpings SS X-99 2019-06-30 19:27:18 07:57:18 08:08:16 00:30:58
7 SWE 28 TJAJKA Björn Ternström 181 Askrike SS Dehler 34DD 2019-06-30 19:32:53 08:02:53 08:15:55 00:38:37
8 SWE 80 ANNA Fredrik Lindahl 131 KSSS Dehler 34 DD 2019-06-30 19:33:37 08:03:37 08:18:36 00:41:18
9 SWE 48 TRAVIATA Team Birgersson 165 SS Svearna Avance 36 2019-06-30 19:58:50 08:38:50 08:24:18 00:47:00
10 SWE 10 ADELINE-WS76 Adeline WS 76 77 Kungliga Svenska Segelsällskapet Comfortina 38 2019-06-30 19:46:24 08:16:24 08:27:19 00:50:01
11 SWE 501 BOJ - BOJ Peter Forslund 228 Runmarö Yacht Club Scampi 2019-06-30 20:42:51 09:22:51 08:28:15 00:50:57
12 SWE 9681 WIZ Wiz Sailingteam 96 Kungliga Svenska Segelsällskapet Dehler db1 2019-06-30 20:07:42 08:47:42 08:42:57 01:05:38
13 SWE 58 JOJO Johan Skåntorp 11 Trälhavets BK J/92S 2019-06-30 20:15:39 08:45:39 08:52:29 01:15:10
14 SWE 303 ANANDRA Göran Haglund 82 Trollbäckens BS Omega 42 2019-06-30 20:16:23 08:46:23 09:01:07 01:23:49
15 SWE 123 ALLWINA Team Allwina 166 Trollbäckens BS Linjett 33 2019-06-30 20:35:54 09:15:54 09:02:33 01:25:15
16 SWE 803 SEALIA Seglarskolan.nu 153 Westerviks SS Wikingarna Albin Scampi 2019-06-30 21:24:00 10:04:00 09:05:24 01:28:06
17 SWE 322 GRYFFINDOR Anders Karlsson 85 Södertälje BS DEHLER 29 MK II 2019-06-30 20:55:12 09:35:12 09:06:26 01:29:08
18 FIN 11035 PAM Team #OURSEA 184 Helsingfors Segelsällskap S&S 40 2019-06-30 20:34:23 09:14:23 09:06:37 01:29:19
19 SWE 42 MOLEKUL 2 TON ARMY 14 KSSS Swan 44 2019-06-30 20:29:11 08:59:11 09:07:16 01:29:58
20 SWE 411 PLUTO Simon Rådahl 48 Morarnas BK Dehler 29 mk2 2019-06-30 20:53:33 09:33:33 09:07:44 01:30:26
21 SWE 106 ORIOLE II Team Oriole 6 KSSS Omega 42 2019-06-30 20:27:03 08:57:03 09:12:05 01:34:47
22 SWE 131 MAJA Team Maja 136 BS Arken Elan 31 2019-06-30 20:55:12 09:35:12 09:12:11 01:34:53
23 SWE 59 SERENITY Jan Komorowski 150 Föreningen Linjettseglarna Linjett 33 2019-06-30 20:39:45 09:19:45 09:13:01 01:35:43
24 SWE 21 RED BARON SEA-SPEED 39 Dalarö BK Ravage 36 2019-06-30 20:37:04 09:07:04 09:15:16 01:37:58
25 SWE 8343 PRIMA DONNA Tomas Hedberg 67 KSSS Bavaria 46 2019-06-30 20:30:17 09:00:17 09:15:57 01:38:38
26 GER 45 ESCAPADE ESCAPADE 9 Viggbyholms Segelsällskapet X-99 2019-06-30 20:33:10 09:03:10 09:18:22 01:41:04
27 SWE 1 TEAM BLACK BIRD Team Black Bird 134 Trälhavets BK enskrov jeanneau 349 2019-06-30 20:47:15 09:27:15 09:19:52 01:42:34
28 SWE 35 ELÄNDET Sandor Moldovan 177 Oskarshamns SS Dominant 95 2019-06-30 20:52:51 09:32:51 09:20:14 01:42:56
29 FIN 10914 LOLEE Antti Elevuori 59 Naantalin Purjehdusseura Arcona 36 2019-06-30 20:43:28 09:13:28 09:21:12 01:43:54
30 SWE 10763 PAULA Tähtihetki 182 Oaxens BK Dufour 385 2019-06-30 20:35:54 09:05:54 09:22:16 01:44:58
31 SWE 87 FIONA Träsktrollen 2.0 110 Velamsunds BK Hanse 325 2019-06-30 21:07:30 09:47:30 09:25:45 01:48:27
32 SWE 7105 AKLEJA Team Akleja 65 Runmarö Yacht Club Dehler 34 DD 2019-06-30 20:46:12 09:16:12 09:30:06 01:52:48
33 SWE 278 HERAKLEITOS Mikael Haake 87 Runmarö Yacht Club Dufour 34 HR 2019-06-30 20:48:05 09:18:05 09:30:21 01:53:03
34 SWE 190 STERENN Team Sterenn 171 Karlskrona SS First 33,7 2019-06-30 20:58:37 09:38:37 09:31:40 01:54:22
35 SWE 128 ASTERIX Asteri‚ú≥ 190 Göta SS X-99 2019-06-30 20:56:21 09:26:21 09:42:12 02:04:54
36 SWE 11908 ETOILE DE MARE Lars Göran Högqvist 129 Svinninge Marina Klubb Jeanneau 39 2019-06-30 21:04:40 09:34:40 09:45:35 02:08:16
37 SWE 143 ARIADNE Team Rival / Henrik Martinell 18 Ekolns SK Rival 22 2019-06-30 22:08:54 10:48:54 10:09:57 02:32:39
38 SWE 48 SCATCAT Team Scatcat 174 Gamla Stans YS Nauticat 43 2019-06-30 22:45:30 11:25:30 10:59:27 03:22:08
39 SWE 9059 Jennifer Jennifer 78 KSSS Beneteau Oceanis 500 2019-06-30 23:57:00 12:27:00 12:47:10 05:09:51